sensor_id;sensor_type;location;lat;lon;timestamp;P1;durP1;ratioP1;P2;durP2;ratioP2
801;SDS011;383;48.766;9.270;2024-03-17T00:01:51;19.45;;;8.63;;
801;SDS011;383;48.766;9.270;2024-03-17T00:04:17;17.83;;;8.35;;
801;SDS011;383;48.766;9.270;2024-03-17T00:06:46;17.70;;;7.07;;
801;SDS011;383;48.766;9.270;2024-03-17T00:09:12;20.88;;;8.20;;
801;SDS011;383;48.766;9.270;2024-03-17T00:11:41;22.42;;;9.95;;
801;SDS011;383;48.766;9.270;2024-03-17T00:14:07;17.08;;;7.65;;
801;SDS011;383;48.766;9.270;2024-03-17T00:16:34;19.52;;;8.18;;
801;SDS011;383;48.766;9.270;2024-03-17T00:19:00;19.65;;;7.95;;
801;SDS011;383;48.766;9.270;2024-03-17T00:21:27;19.23;;;8.10;;
801;SDS011;383;48.766;9.270;2024-03-17T00:23:55;19.30;;;8.18;;
801;SDS011;383;48.766;9.270;2024-03-17T00:26:22;21.00;;;8.32;;
801;SDS011;383;48.766;9.270;2024-03-17T00:28:48;16.95;;;7.90;;
801;SDS011;383;48.766;9.270;2024-03-17T00:31:16;15.20;;;6.43;;
801;SDS011;383;48.766;9.270;2024-03-17T00:33:42;14.13;;;7.22;;
801;SDS011;383;48.766;9.270;2024-03-17T00:36:10;15.73;;;7.40;;
801;SDS011;383;48.766;9.270;2024-03-17T00:38:36;22.27;;;8.35;;
801;SDS011;383;48.766;9.270;2024-03-17T00:41:04;16.13;;;7.53;;
801;SDS011;383;48.766;9.270;2024-03-17T00:43:31;15.52;;;6.43;;
801;SDS011;383;48.766;9.270;2024-03-17T00:45:58;11.23;;;6.20;;
801;SDS011;383;48.766;9.270;2024-03-17T00:48:24;12.32;;;6.18;;
801;SDS011;383;48.766;9.270;2024-03-17T00:50:55;16.17;;;5.90;;
801;SDS011;383;48.766;9.270;2024-03-17T00:53:21;13.98;;;6.38;;
801;SDS011;383;48.766;9.270;2024-03-17T00:55:51;11.23;;;5.90;;
801;SDS011;383;48.766;9.270;2024-03-17T00:58:18;13.18;;;6.72;;
801;SDS011;383;48.766;9.270;2024-03-17T01:00:46;15.73;;;6.13;;
801;SDS011;383;48.766;9.270;2024-03-17T01:03:12;16.27;;;7.15;;
801;SDS011;383;48.766;9.270;2024-03-17T01:05:40;13.55;;;7.13;;
801;SDS011;383;48.766;9.270;2024-03-17T01:08:07;16.25;;;7.10;;
801;SDS011;383;48.766;9.270;2024-03-17T01:10:36;16.08;;;5.93;;
801;SDS011;383;48.766;9.270;2024-03-17T01:13:03;16.73;;;6.90;;
801;SDS011;383;48.766;9.270;2024-03-17T01:15:31;11.90;;;6.68;;
801;SDS011;383;48.766;9.270;2024-03-17T01:17:58;16.67;;;6.68;;
801;SDS011;383;48.766;9.270;2024-03-17T01:20:24;18.48;;;6.50;;
801;SDS011;383;48.766;9.270;2024-03-17T01:22:51;13.63;;;6.43;;
801;SDS011;383;48.766;9.270;2024-03-17T01:25:17;16.95;;;6.45;;
801;SDS011;383;48.766;9.270;2024-03-17T01:27:44;13.48;;;6.20;;
801;SDS011;383;48.766;9.270;2024-03-17T01:30:11;13.57;;;5.55;;
801;SDS011;383;48.766;9.270;2024-03-17T01:32:39;14.60;;;6.50;;
801;SDS011;383;48.766;9.270;2024-03-17T01:35:05;12.98;;;6.15;;
801;SDS011;383;48.766;9.270;2024-03-17T01:37:32;12.48;;;5.75;;
801;SDS011;383;48.766;9.270;2024-03-17T01:39:59;12.18;;;5.70;;
801;SDS011;383;48.766;9.270;2024-03-17T01:42:26;12.93;;;6.00;;
801;SDS011;383;48.766;9.270;2024-03-17T01:44:54;17.35;;;5.72;;
801;SDS011;383;48.766;9.270;2024-03-17T01:47:21;12.77;;;5.25;;
801;SDS011;383;48.766;9.270;2024-03-17T01:49:48;11.65;;;4.70;;
801;SDS011;383;48.766;9.270;2024-03-17T01:52:16;11.32;;;5.47;;
801;SDS011;383;48.766;9.270;2024-03-17T01:54:42;13.82;;;5.28;;
801;SDS011;383;48.766;9.270;2024-03-17T01:57:10;15.55;;;6.15;;
801;SDS011;383;48.766;9.270;2024-03-17T01:59:37;20.50;;;5.00;;
801;SDS011;383;48.766;9.270;2024-03-17T02:02:04;9.80;;;5.47;;
801;SDS011;383;48.766;9.270;2024-03-17T02:04:30;10.90;;;5.75;;
801;SDS011;383;48.766;9.270;2024-03-17T02:07:00;11.48;;;5.63;;
801;SDS011;383;48.766;9.270;2024-03-17T02:09:26;10.98;;;5.13;;
801;SDS011;383;48.766;9.270;2024-03-17T02:11:53;10.07;;;4.78;;
801;SDS011;383;48.766;9.270;2024-03-17T02:14:20;14.82;;;6.25;;
801;SDS011;383;48.766;9.270;2024-03-17T02:16:47;14.40;;;6.10;;
801;SDS011;383;48.766;9.270;2024-03-17T02:19:13;11.52;;;5.30;;
801;SDS011;383;48.766;9.270;2024-03-17T02:21:40;16.05;;;6.70;;
801;SDS011;383;48.766;9.270;2024-03-17T02:24:09;15.35;;;6.80;;
801;SDS011;383;48.766;9.270;2024-03-17T02:26:36;9.35;;;5.32;;
801;SDS011;383;48.766;9.270;2024-03-17T02:29:03;12.73;;;5.75;;
801;SDS011;383;48.766;9.270;2024-03-17T02:31:30;16.17;;;5.88;;
801;SDS011;383;48.766;9.270;2024-03-17T02:33:56;14.50;;;5.13;;
801;SDS011;383;48.766;9.270;2024-03-17T02:36:23;13.30;;;6.30;;
801;SDS011;383;48.766;9.270;2024-03-17T02:38:49;11.60;;;5.30;;
801;SDS011;383;48.766;9.270;2024-03-17T02:41:36;11.18;;;5.50;;
801;SDS011;383;48.766;9.270;2024-03-17T02:44:03;14.18;;;5.93;;
801;SDS011;383;48.766;9.270;2024-03-17T02:46:31;13.18;;;6.00;;
801;SDS011;383;48.766;9.270;2024-03-17T02:48:59;18.85;;;6.78;;
801;SDS011;383;48.766;9.270;2024-03-17T02:51:27;10.07;;;5.05;;
801;SDS011;383;48.766;9.270;2024-03-17T02:53:54;18.13;;;6.32;;
801;SDS011;383;48.766;9.270;2024-03-17T02:56:21;11.40;;;5.22;;
801;SDS011;383;48.766;9.270;2024-03-17T02:58:49;13.80;;;6.43;;
801;SDS011;383;48.766;9.270;2024-03-17T03:01:16;12.05;;;4.88;;
801;SDS011;383;48.766;9.270;2024-03-17T03:03:44;14.07;;;5.55;;
801;SDS011;383;48.766;9.270;2024-03-17T03:06:11;13.85;;;6.60;;
801;SDS011;383;48.766;9.270;2024-03-17T03:08:38;12.68;;;6.40;;
801;SDS011;383;48.766;9.270;2024-03-17T03:11:05;10.98;;;5.22;;
801;SDS011;383;48.766;9.270;2024-03-17T03:13:35;17.45;;;6.50;;
801;SDS011;383;48.766;9.270;2024-03-17T03:16:04;12.00;;;6.22;;
801;SDS011;383;48.766;9.270;2024-03-17T03:18:31;10.07;;;5.18;;
801;SDS011;383;48.766;9.270;2024-03-17T03:20:58;15.35;;;5.80;;
801;SDS011;383;48.766;9.270;2024-03-17T03:23:25;15.05;;;5.63;;
801;SDS011;383;48.766;9.270;2024-03-17T03:25:54;15.25;;;6.35;;
801;SDS011;383;48.766;9.270;2024-03-17T03:28:22;12.15;;;5.47;;
801;SDS011;383;48.766;9.270;2024-03-17T03:30:49;16.92;;;6.45;;
801;SDS011;383;48.766;9.270;2024-03-17T03:33:18;15.38;;;7.15;;
801;SDS011;383;48.766;9.270;2024-03-17T03:35:45;18.02;;;6.38;;
801;SDS011;383;48.766;9.270;2024-03-17T03:38:13;19.15;;;7.35;;
801;SDS011;383;48.766;9.270;2024-03-17T03:40:40;19.70;;;7.88;;
801;SDS011;383;48.766;9.270;2024-03-17T03:43:07;19.77;;;7.22;;
801;SDS011;383;48.766;9.270;2024-03-17T03:45:34;14.65;;;7.55;;
801;SDS011;383;48.766;9.270;2024-03-17T03:48:01;20.58;;;7.00;;
801;SDS011;383;48.766;9.270;2024-03-17T03:50:30;15.27;;;6.55;;
801;SDS011;383;48.766;9.270;2024-03-17T03:52:57;18.33;;;7.03;;
801;SDS011;383;48.766;9.270;2024-03-17T03:55:24;18.65;;;7.20;;
801;SDS011;383;48.766;9.270;2024-03-17T03:57:51;19.95;;;7.30;;
801;SDS011;383;48.766;9.270;2024-03-17T04:00:18;13.10;;;6.35;;
801;SDS011;383;48.766;9.270;2024-03-17T04:02:47;17.83;;;7.82;;
801;SDS011;383;48.766;9.270;2024-03-17T04:05:14;16.75;;;7.07;;
801;SDS011;383;48.766;9.270;2024-03-17T04:07:43;18.42;;;6.82;;
801;SDS011;383;48.766;9.270;2024-03-17T04:10:11;16.75;;;7.03;;
801;SDS011;383;48.766;9.270;2024-03-17T04:12:38;16.55;;;5.85;;
801;SDS011;383;48.766;9.270;2024-03-17T04:15:05;16.58;;;7.35;;
801;SDS011;383;48.766;9.270;2024-03-17T04:17:35;17.73;;;7.85;;
801;SDS011;383;48.766;9.270;2024-03-17T04:20:02;19.13;;;7.70;;
801;SDS011;383;48.766;9.270;2024-03-17T04:22:29;20.10;;;7.63;;
801;SDS011;383;48.766;9.270;2024-03-17T04:24:58;18.23;;;7.57;;
801;SDS011;383;48.766;9.270;2024-03-17T04:27:25;22.25;;;7.65;;
801;SDS011;383;48.766;9.270;2024-03-17T04:29:53;16.35;;;6.88;;
801;SDS011;383;48.766;9.270;2024-03-17T04:32:21;12.00;;;6.22;;
801;SDS011;383;48.766;9.270;2024-03-17T04:34:48;13.75;;;6.70;;
801;SDS011;383;48.766;9.270;2024-03-17T04:37:15;17.55;;;7.38;;
801;SDS011;383;48.766;9.270;2024-03-17T04:39:42;10.70;;;6.15;;
801;SDS011;383;48.766;9.270;2024-03-17T04:42:11;15.95;;;6.90;;
801;SDS011;383;48.766;9.270;2024-03-17T04:44:39;24.00;;;7.10;;
801;SDS011;383;48.766;9.270;2024-03-17T04:47:06;11.35;;;5.40;;
801;SDS011;383;48.766;9.270;2024-03-17T04:49:34;14.48;;;6.65;;
801;SDS011;383;48.766;9.270;2024-03-17T04:52:01;16.33;;;6.72;;
801;SDS011;383;48.766;9.270;2024-03-17T04:54:29;12.18;;;6.13;;
801;SDS011;383;48.766;9.270;2024-03-17T04:56:56;20.13;;;7.53;;
801;SDS011;383;48.766;9.270;2024-03-17T04:59:24;11.52;;;5.50;;
801;SDS011;383;48.766;9.270;2024-03-17T05:01:52;21.45;;;7.30;;
801;SDS011;383;48.766;9.270;2024-03-17T05:04:19;14.30;;;6.63;;
801;SDS011;383;48.766;9.270;2024-03-17T05:06:48;14.98;;;6.15;;
801;SDS011;383;48.766;9.270;2024-03-17T05:09:15;20.08;;;5.90;;
801;SDS011;383;48.766;9.270;2024-03-17T05:11:42;14.35;;;5.85;;
801;SDS011;383;48.766;9.270;2024-03-17T05:14:09;10.88;;;5.68;;
801;SDS011;383;48.766;9.270;2024-03-17T05:16:38;11.48;;;6.68;;
801;SDS011;383;48.766;9.270;2024-03-17T05:19:05;11.90;;;5.90;;
801;SDS011;383;48.766;9.270;2024-03-17T05:21:34;11.75;;;5.03;;
801;SDS011;383;48.766;9.270;2024-03-17T05:24:01;13.35;;;5.90;;
801;SDS011;383;48.766;9.270;2024-03-17T05:26:28;14.68;;;6.68;;
801;SDS011;383;48.766;9.270;2024-03-17T05:28:56;14.98;;;6.72;;
801;SDS011;383;48.766;9.270;2024-03-17T05:31:23;19.60;;;7.45;;
801;SDS011;383;48.766;9.270;2024-03-17T05:33:52;12.90;;;6.38;;
801;SDS011;383;48.766;9.270;2024-03-17T05:36:19;14.85;;;5.70;;
801;SDS011;383;48.766;9.270;2024-03-17T05:38:46;14.10;;;6.30;;
801;SDS011;383;48.766;9.270;2024-03-17T05:41:13;18.38;;;6.72;;
801;SDS011;383;48.766;9.270;2024-03-17T05:43:40;15.05;;;6.65;;
801;SDS011;383;48.766;9.270;2024-03-17T05:46:08;18.40;;;7.72;;
801;SDS011;383;48.766;9.270;2024-03-17T05:48:36;12.18;;;6.10;;
801;SDS011;383;48.766;9.270;2024-03-17T05:51:05;16.02;;;7.78;;
801;SDS011;383;48.766;9.270;2024-03-17T05:53:32;15.52;;;7.03;;
801;SDS011;383;48.766;9.270;2024-03-17T05:55:59;13.75;;;6.80;;
801;SDS011;383;48.766;9.270;2024-03-17T05:58:26;16.45;;;6.38;;
801;SDS011;383;48.766;9.270;2024-03-17T06:00:53;13.73;;;6.65;;
801;SDS011;383;48.766;9.270;2024-03-17T06:03:20;11.27;;;6.35;;
801;SDS011;383;48.766;9.270;2024-03-17T06:05:48;13.50;;;6.15;;
801;SDS011;383;48.766;9.270;2024-03-17T06:08:16;16.38;;;7.10;;
801;SDS011;383;48.766;9.270;2024-03-17T06:10:44;16.50;;;9.52;;
801;SDS011;383;48.766;9.270;2024-03-17T06:13:12;20.10;;;8.30;;
801;SDS011;383;48.766;9.270;2024-03-17T06:15:41;15.68;;;8.00;;
801;SDS011;383;48.766;9.270;2024-03-17T06:18:09;12.85;;;7.20;;
801;SDS011;383;48.766;9.270;2024-03-17T06:20:39;17.40;;;8.00;;
801;SDS011;383;48.766;9.270;2024-03-17T06:23:08;20.17;;;8.20;;
801;SDS011;383;48.766;9.270;2024-03-17T06:25:39;17.20;;;8.63;;
801;SDS011;383;48.766;9.270;2024-03-17T06:28:06;16.23;;;8.07;;
801;SDS011;383;48.766;9.270;2024-03-17T06:30:34;19.17;;;7.53;;
801;SDS011;383;48.766;9.270;2024-03-17T06:33:02;18.38;;;8.75;;
801;SDS011;383;48.766;9.270;2024-03-17T06:35:30;21.83;;;8.70;;
801;SDS011;383;48.766;9.270;2024-03-17T06:37:58;22.83;;;9.80;;
801;SDS011;383;48.766;9.270;2024-03-17T06:40:26;17.65;;;8.25;;
801;SDS011;383;48.766;9.270;2024-03-17T06:42:55;23.00;;;10.10;;
801;SDS011;383;48.766;9.270;2024-03-17T06:45:22;34.97;;;13.75;;
801;SDS011;383;48.766;9.270;2024-03-17T06:47:49;25.48;;;10.55;;
801;SDS011;383;48.766;9.270;2024-03-17T06:50:16;26.40;;;11.43;;
801;SDS011;383;48.766;9.270;2024-03-17T06:52:43;22.95;;;10.55;;
801;SDS011;383;48.766;9.270;2024-03-17T06:55:10;26.08;;;10.20;;
801;SDS011;383;48.766;9.270;2024-03-17T06:57:40;19.67;;;9.15;;
801;SDS011;383;48.766;9.270;2024-03-17T07:00:11;22.67;;;8.02;;
801;SDS011;383;48.766;9.270;2024-03-17T07:02:39;21.40;;;8.60;;
801;SDS011;383;48.766;9.270;2024-03-17T07:05:10;19.45;;;7.90;;
801;SDS011;383;48.766;9.270;2024-03-17T07:07:39;18.35;;;8.43;;
801;SDS011;383;48.766;9.270;2024-03-17T07:10:06;15.50;;;8.70;;
801;SDS011;383;48.766;9.270;2024-03-17T07:12:33;20.60;;;9.30;;
801;SDS011;383;48.766;9.270;2024-03-17T07:15:00;12.52;;;7.30;;
801;SDS011;383;48.766;9.270;2024-03-17T07:17:29;20.30;;;9.02;;
801;SDS011;383;48.766;9.270;2024-03-17T07:19:56;16.55;;;7.95;;
801;SDS011;383;48.766;9.270;2024-03-17T07:22:23;21.00;;;8.30;;
801;SDS011;383;48.766;9.270;2024-03-17T07:24:51;13.00;;;7.95;;
801;SDS011;383;48.766;9.270;2024-03-17T07:27:20;15.55;;;7.47;;
801;SDS011;383;48.766;9.270;2024-03-17T07:29:47;21.35;;;7.88;;
801;SDS011;383;48.766;9.270;2024-03-17T07:32:14;14.93;;;7.30;;
801;SDS011;383;48.766;9.270;2024-03-17T07:34:43;13.63;;;5.82;;
801;SDS011;383;48.766;9.270;2024-03-17T07:37:10;11.93;;;7.65;;
801;SDS011;383;48.766;9.270;2024-03-17T07:39:37;12.13;;;7.22;;
801;SDS011;383;48.766;9.270;2024-03-17T07:42:04;13.27;;;6.20;;
801;SDS011;383;48.766;9.270;2024-03-17T07:44:32;14.60;;;7.10;;
801;SDS011;383;48.766;9.270;2024-03-17T07:46:59;12.45;;;5.85;;
801;SDS011;383;48.766;9.270;2024-03-17T07:49:26;12.45;;;6.47;;
801;SDS011;383;48.766;9.270;2024-03-17T07:51:55;17.40;;;7.32;;
801;SDS011;383;48.766;9.270;2024-03-17T07:54:22;12.70;;;6.50;;
801;SDS011;383;48.766;9.270;2024-03-17T07:56:49;16.02;;;6.55;;
801;SDS011;383;48.766;9.270;2024-03-17T07:59:17;14.45;;;6.38;;
801;SDS011;383;48.766;9.270;2024-03-17T08:01:44;12.20;;;6.20;;
801;SDS011;383;48.766;9.270;2024-03-17T08:04:11;13.85;;;7.82;;
801;SDS011;383;48.766;9.270;2024-03-17T08:06:38;17.98;;;9.02;;
801;SDS011;383;48.766;9.270;2024-03-17T08:09:07;15.90;;;8.02;;
801;SDS011;383;48.766;9.270;2024-03-17T08:11:34;9.75;;;5.10;;
801;SDS011;383;48.766;9.270;2024-03-17T08:14:01;24.60;;;13.35;;
801;SDS011;383;48.766;9.270;2024-03-17T08:16:28;16.02;;;8.65;;
801;SDS011;383;48.766;9.270;2024-03-17T08:18:55;12.27;;;6.30;;
801;SDS011;383;48.766;9.270;2024-03-17T08:21:22;9.13;;;5.70;;
801;SDS011;383;48.766;9.270;2024-03-17T08:23:52;12.47;;;6.13;;
801;SDS011;383;48.766;9.270;2024-03-17T08:26:20;10.95;;;6.07;;
801;SDS011;383;48.766;9.270;2024-03-17T08:28:47;9.10;;;5.20;;
801;SDS011;383;48.766;9.270;2024-03-17T08:31:14;10.47;;;4.80;;
801;SDS011;383;48.766;9.270;2024-03-17T08:33:41;11.60;;;7.50;;
801;SDS011;383;48.766;9.270;2024-03-17T08:36:08;19.07;;;14.50;;
801;SDS011;383;48.766;9.270;2024-03-17T08:38:36;18.40;;;9.73;;
801;SDS011;383;48.766;9.270;2024-03-17T08:41:04;11.43;;;5.13;;
801;SDS011;383;48.766;9.270;2024-03-17T08:43:32;13.63;;;7.20;;
801;SDS011;383;48.766;9.270;2024-03-17T08:46:00;12.10;;;7.03;;
801;SDS011;383;48.766;9.270;2024-03-17T08:48:28;9.63;;;6.17;;
801;SDS011;383;48.766;9.270;2024-03-17T08:50:56;7.70;;;4.70;;
801;SDS011;383;48.766;9.270;2024-03-17T08:53:23;8.57;;;4.90;;
801;SDS011;383;48.766;9.270;2024-03-17T08:55:51;9.47;;;4.57;;
801;SDS011;383;48.766;9.270;2024-03-17T08:58:18;9.63;;;5.40;;
801;SDS011;383;48.766;9.270;2024-03-17T09:00:46;9.43;;;4.60;;
801;SDS011;383;48.766;9.270;2024-03-17T09:03:14;8.47;;;4.20;;
801;SDS011;383;48.766;9.270;2024-03-17T09:05:44;9.43;;;5.20;;
801;SDS011;383;48.766;9.270;2024-03-17T09:08:14;10.20;;;5.10;;
801;SDS011;383;48.766;9.270;2024-03-17T09:10:41;8.67;;;3.80;;
801;SDS011;383;48.766;9.270;2024-03-17T09:13:09;6.87;;;4.17;;
801;SDS011;383;48.766;9.270;2024-03-17T09:15:39;6.40;;;3.60;;
801;SDS011;383;48.766;9.270;2024-03-17T09:18:07;9.10;;;4.53;;
801;SDS011;383;48.766;9.270;2024-03-17T09:20:34;9.73;;;4.17;;
801;SDS011;383;48.766;9.270;2024-03-17T09:23:01;11.73;;;4.60;;
801;SDS011;383;48.766;9.270;2024-03-17T09:25:28;6.20;;;3.40;;
801;SDS011;383;48.766;9.270;2024-03-17T09:27:55;5.00;;;3.43;;
801;SDS011;383;48.766;9.270;2024-03-17T09:30:23;8.20;;;4.70;;
801;SDS011;383;48.766;9.270;2024-03-17T09:32:50;10.90;;;3.77;;
801;SDS011;383;48.766;9.270;2024-03-17T09:35:18;5.87;;;3.50;;
801;SDS011;383;48.766;9.270;2024-03-17T09:37:45;6.90;;;3.97;;
801;SDS011;383;48.766;9.270;2024-03-17T09:40:13;5.80;;;3.83;;
801;SDS011;383;48.766;9.270;2024-03-17T09:42:40;8.10;;;3.40;;
801;SDS011;383;48.766;9.270;2024-03-17T09:45:08;6.60;;;3.73;;
801;SDS011;383;48.766;9.270;2024-03-17T09:47:36;5.10;;;3.70;;
801;SDS011;383;48.766;9.270;2024-03-17T09:50:04;7.63;;;3.43;;
801;SDS011;383;48.766;9.270;2024-03-17T09:52:33;9.53;;;3.40;;
801;SDS011;383;48.766;9.270;2024-03-17T09:55:01;8.90;;;3.70;;
801;SDS011;383;48.766;9.270;2024-03-17T09:57:34;7.17;;;3.53;;
801;SDS011;383;48.766;9.270;2024-03-17T10:00:03;5.93;;;3.63;;
801;SDS011;383;48.766;9.270;2024-03-17T10:02:41;6.27;;;3.77;;
801;SDS011;383;48.766;9.270;2024-03-17T10:05:14;4.80;;;2.73;;
801;SDS011;383;48.766;9.270;2024-03-17T10:07:45;5.07;;;3.20;;
801;SDS011;383;48.766;9.270;2024-03-17T10:10:13;7.10;;;4.00;;
801;SDS011;383;48.766;9.270;2024-03-17T10:12:41;4.13;;;3.00;;
801;SDS011;383;48.766;9.270;2024-03-17T10:15:10;7.60;;;3.60;;
801;SDS011;383;48.766;9.270;2024-03-17T10:17:37;8.73;;;3.13;;
801;SDS011;383;48.766;9.270;2024-03-17T10:20:14;6.60;;;3.10;;
801;SDS011;383;48.766;9.270;2024-03-17T10:25:25;6.00;;;3.20;;
801;SDS011;383;48.766;9.270;2024-03-17T10:27:52;3.90;;;3.10;;
801;SDS011;383;48.766;9.270;2024-03-17T10:30:20;2.90;;;2.60;;
801;SDS011;383;48.766;9.270;2024-03-17T10:32:53;4.40;;;2.70;;
801;SDS011;383;48.766;9.270;2024-03-17T10:35:27;4.33;;;2.80;;
801;SDS011;383;48.766;9.270;2024-03-17T10:37:55;5.37;;;3.63;;
801;SDS011;383;48.766;9.270;2024-03-17T10:40:24;4.37;;;3.13;;
801;SDS011;383;48.766;9.270;2024-03-17T10:42:52;3.63;;;2.70;;
801;SDS011;383;48.766;9.270;2024-03-17T10:45:19;4.30;;;2.70;;
801;SDS011;383;48.766;9.270;2024-03-17T10:47:47;6.57;;;3.43;;
801;SDS011;383;48.766;9.270;2024-03-17T10:50:15;6.03;;;3.33;;
801;SDS011;383;48.766;9.270;2024-03-17T10:52:44;4.07;;;2.83;;
801;SDS011;383;48.766;9.270;2024-03-17T10:55:18;3.10;;;2.20;;
801;SDS011;383;48.766;9.270;2024-03-17T10:57:49;5.20;;;2.43;;
801;SDS011;383;48.766;9.270;2024-03-17T11:00:16;5.27;;;2.90;;
801;SDS011;383;48.766;9.270;2024-03-17T11:02:44;4.67;;;3.30;;
801;SDS011;383;48.766;9.270;2024-03-17T11:05:13;2.90;;;2.43;;
801;SDS011;383;48.766;9.270;2024-03-17T11:07:41;4.30;;;3.17;;
801;SDS011;383;48.766;9.270;2024-03-17T11:10:11;2.97;;;2.33;;
801;SDS011;383;48.766;9.270;2024-03-17T11:12:41;4.87;;;2.57;;
801;SDS011;383;48.766;9.270;2024-03-17T11:18:26;4.67;;;2.33;;
801;SDS011;383;48.766;9.270;2024-03-17T11:20:55;3.43;;;2.80;;
801;SDS011;383;48.766;9.270;2024-03-17T11:23:26;3.07;;;2.37;;
801;SDS011;383;48.766;9.270;2024-03-17T11:25:54;2.57;;;2.00;;
801;SDS011;383;48.766;9.270;2024-03-17T11:31:03;4.20;;;2.87;;
801;SDS011;383;48.766;9.270;2024-03-17T11:33:47;2.43;;;2.10;;
801;SDS011;383;48.766;9.270;2024-03-17T11:36:32;6.77;;;2.33;;
801;SDS011;383;48.766;9.270;2024-03-17T11:39:02;4.40;;;2.50;;
801;SDS011;383;48.766;9.270;2024-03-17T11:41:32;4.20;;;2.20;;
801;SDS011;383;48.766;9.270;2024-03-17T11:44:14;2.43;;;2.00;;
801;SDS011;383;48.766;9.270;2024-03-17T11:46:41;2.00;;;1.70;;
801;SDS011;383;48.766;9.270;2024-03-17T11:49:16;3.90;;;2.00;;
801;SDS011;383;48.766;9.270;2024-03-17T11:51:42;6.57;;;2.10;;
801;SDS011;383;48.766;9.270;2024-03-17T11:54:09;3.00;;;2.07;;
801;SDS011;383;48.766;9.270;2024-03-17T11:56:38;4.47;;;2.60;;
801;SDS011;383;48.766;9.270;2024-03-17T11:59:06;2.50;;;2.40;;
801;SDS011;383;48.766;9.270;2024-03-17T12:01:34;4.33;;;2.10;;
801;SDS011;383;48.766;9.270;2024-03-17T12:04:01;2.60;;;2.10;;
801;SDS011;383;48.766;9.270;2024-03-17T12:06:31;3.40;;;2.60;;
801;SDS011;383;48.766;9.270;2024-03-17T12:09:08;2.50;;;2.07;;
801;SDS011;383;48.766;9.270;2024-03-17T12:11:35;2.87;;;2.10;;
801;SDS011;383;48.766;9.270;2024-03-17T12:14:12;3.87;;;2.43;;
801;SDS011;383;48.766;9.270;2024-03-17T12:16:46;6.00;;;2.53;;
801;SDS011;383;48.766;9.270;2024-03-17T12:19:14;3.07;;;2.03;;
801;SDS011;383;48.766;9.270;2024-03-17T12:21:43;7.10;;;2.40;;
801;SDS011;383;48.766;9.270;2024-03-17T12:24:12;5.67;;;2.77;;
801;SDS011;383;48.766;9.270;2024-03-17T12:26:39;8.30;;;2.40;;
801;SDS011;383;48.766;9.270;2024-03-17T12:29:20;6.83;;;2.70;;
801;SDS011;383;48.766;9.270;2024-03-17T12:31:47;6.93;;;2.63;;
801;SDS011;383;48.766;9.270;2024-03-17T12:34:14;3.50;;;2.50;;
801;SDS011;383;48.766;9.270;2024-03-17T12:36:40;3.30;;;2.13;;
801;SDS011;383;48.766;9.270;2024-03-17T12:39:12;5.90;;;2.00;;
801;SDS011;383;48.766;9.270;2024-03-17T12:41:43;6.30;;;2.87;;
801;SDS011;383;48.766;9.270;2024-03-17T12:44:20;7.77;;;3.40;;
801;SDS011;383;48.766;9.270;2024-03-17T12:46:47;5.07;;;2.93;;
801;SDS011;383;48.766;9.270;2024-03-17T12:49:14;4.10;;;2.80;;
801;SDS011;383;48.766;9.270;2024-03-17T12:51:41;4.00;;;2.53;;
801;SDS011;383;48.766;9.270;2024-03-17T12:54:14;4.73;;;2.90;;
801;SDS011;383;48.766;9.270;2024-03-17T12:56:42;3.33;;;2.60;;
801;SDS011;383;48.766;9.270;2024-03-17T12:59:36;3.63;;;2.73;;
801;SDS011;383;48.766;9.270;2024-03-17T13:02:20;7.53;;;2.83;;
801;SDS011;383;48.766;9.270;2024-03-17T13:04:54;4.43;;;3.20;;
801;SDS011;383;48.766;9.270;2024-03-17T13:07:31;4.00;;;2.83;;
801;SDS011;383;48.766;9.270;2024-03-17T13:10:00;6.50;;;3.50;;
801;SDS011;383;48.766;9.270;2024-03-17T13:12:29;4.83;;;2.93;;
801;SDS011;383;48.766;9.270;2024-03-17T13:14:56;4.60;;;2.70;;
801;SDS011;383;48.766;9.270;2024-03-17T13:17:23;3.47;;;2.13;;
801;SDS011;383;48.766;9.270;2024-03-17T13:19:50;8.73;;;2.97;;
801;SDS011;383;48.766;9.270;2024-03-17T13:22:17;4.40;;;3.00;;
801;SDS011;383;48.766;9.270;2024-03-17T13:24:44;3.90;;;2.40;;
801;SDS011;383;48.766;9.270;2024-03-17T13:27:13;3.83;;;2.13;;
801;SDS011;383;48.766;9.270;2024-03-17T13:29:40;2.80;;;2.20;;
801;SDS011;383;48.766;9.270;2024-03-17T13:32:09;2.27;;;2.07;;
801;SDS011;383;48.766;9.270;2024-03-17T13:34:36;7.13;;;2.70;;
801;SDS011;383;48.766;9.270;2024-03-17T13:37:03;4.50;;;2.13;;
801;SDS011;383;48.766;9.270;2024-03-17T13:39:30;5.03;;;2.73;;
801;SDS011;383;48.766;9.270;2024-03-17T13:41:58;3.93;;;2.57;;
801;SDS011;383;48.766;9.270;2024-03-17T13:44:29;5.30;;;2.80;;
801;SDS011;383;48.766;9.270;2024-03-17T13:46:57;4.00;;;2.50;;
801;SDS011;383;48.766;9.270;2024-03-17T13:49:26;7.10;;;2.50;;
801;SDS011;383;48.766;9.270;2024-03-17T13:51:53;4.43;;;2.60;;
801;SDS011;383;48.766;9.270;2024-03-17T13:54:20;3.63;;;2.23;;
801;SDS011;383;48.766;9.270;2024-03-17T13:56:47;5.70;;;2.50;;
801;SDS011;383;48.766;9.270;2024-03-17T13:59:14;3.40;;;2.60;;
801;SDS011;383;48.766;9.270;2024-03-17T14:01:43;3.80;;;2.50;;
801;SDS011;383;48.766;9.270;2024-03-17T14:04:12;9.00;;;2.97;;
801;SDS011;383;48.766;9.270;2024-03-17T14:06:41;4.77;;;2.60;;
801;SDS011;383;48.766;9.270;2024-03-17T14:09:08;4.70;;;2.60;;
801;SDS011;383;48.766;9.270;2024-03-17T14:11:35;5.53;;;2.50;;
801;SDS011;383;48.766;9.270;2024-03-17T14:14:03;3.53;;;2.20;;
801;SDS011;383;48.766;9.270;2024-03-17T14:16:30;3.70;;;2.33;;
801;SDS011;383;48.766;9.270;2024-03-17T14:18:59;5.80;;;2.77;;
801;SDS011;383;48.766;9.270;2024-03-17T14:21:26;7.70;;;3.43;;
801;SDS011;383;48.766;9.270;2024-03-17T14:23:53;4.17;;;2.53;;
801;SDS011;383;48.766;9.270;2024-03-17T14:26:21;8.57;;;2.77;;
801;SDS011;383;48.766;9.270;2024-03-17T14:28:48;5.07;;;2.20;;
801;SDS011;383;48.766;9.270;2024-03-17T14:31:16;4.07;;;2.00;;
801;SDS011;383;48.766;9.270;2024-03-17T14:33:43;5.37;;;2.17;;
801;SDS011;383;48.766;9.270;2024-03-17T14:36:12;4.50;;;2.43;;
801;SDS011;383;48.766;9.270;2024-03-17T14:38:39;10.73;;;4.97;;
801;SDS011;383;48.766;9.270;2024-03-17T14:41:08;4.00;;;2.70;;
801;SDS011;383;48.766;9.270;2024-03-17T14:43:35;3.07;;;2.60;;
801;SDS011;383;48.766;9.270;2024-03-17T14:46:03;3.60;;;2.17;;
801;SDS011;383;48.766;9.270;2024-03-17T14:48:32;4.40;;;2.40;;
801;SDS011;383;48.766;9.270;2024-03-17T14:50:59;4.40;;;3.23;;
801;SDS011;383;48.766;9.270;2024-03-17T14:53:28;3.10;;;1.93;;
801;SDS011;383;48.766;9.270;2024-03-17T14:55:55;4.20;;;2.63;;
801;SDS011;383;48.766;9.270;2024-03-17T14:58:21;3.70;;;1.90;;
801;SDS011;383;48.766;9.270;2024-03-17T15:00:49;3.70;;;2.67;;
801;SDS011;383;48.766;9.270;2024-03-17T15:03:17;7.03;;;3.43;;
801;SDS011;383;48.766;9.270;2024-03-17T15:05:44;3.87;;;2.47;;
801;SDS011;383;48.766;9.270;2024-03-17T15:08:11;5.17;;;2.77;;
801;SDS011;383;48.766;9.270;2024-03-17T15:10:40;4.00;;;2.40;;
801;SDS011;383;48.766;9.270;2024-03-17T15:13:07;4.40;;;3.00;;
801;SDS011;383;48.766;9.270;2024-03-17T15:15:35;7.50;;;2.57;;
801;SDS011;383;48.766;9.270;2024-03-17T15:18:02;6.53;;;2.53;;
801;SDS011;383;48.766;9.270;2024-03-17T15:20:30;4.50;;;2.50;;
801;SDS011;383;48.766;9.270;2024-03-17T15:22:57;9.90;;;3.10;;
801;SDS011;383;48.766;9.270;2024-03-17T15:25:25;6.40;;;2.30;;
801;SDS011;383;48.766;9.270;2024-03-17T15:27:54;3.83;;;2.70;;
801;SDS011;383;48.766;9.270;2024-03-17T15:30:21;4.97;;;2.43;;
801;SDS011;383;48.766;9.270;2024-03-17T15:32:51;3.80;;;2.20;;
801;SDS011;383;48.766;9.270;2024-03-17T15:35:19;4.47;;;2.20;;
801;SDS011;383;48.766;9.270;2024-03-17T15:37:46;3.27;;;2.33;;
801;SDS011;383;48.766;9.270;2024-03-17T15:40:14;4.03;;;2.70;;
801;SDS011;383;48.766;9.270;2024-03-17T15:42:42;3.23;;;2.37;;
801;SDS011;383;48.766;9.270;2024-03-17T15:45:11;2.87;;;2.07;;
801;SDS011;383;48.766;9.270;2024-03-17T15:47:38;6.93;;;3.20;;
801;SDS011;383;48.766;9.270;2024-03-17T15:50:06;4.00;;;2.23;;
801;SDS011;383;48.766;9.270;2024-03-17T15:52:33;6.27;;;2.10;;